Impacts TAF Board INFO
FOR SITUATIONAL AWARENESS. NOT TO BE USED FOR FLIGHT PLANNING PURPOSES.
IDs:

KBTR - Baton Rouge/Ryan Fld, LA, US

Issued at 0530 UTC 18 Feb 2018
Updated at 0632 UTC 18 Feb 2018
Potential Impact None Slight Moderate High
Time<<18/19Z 18/20Z 18/21Z 18/22Z 18/23Z 19/00Z 19/01Z 19/02Z 19/03Z 19/04Z 19/05Z 19/06Z 19/07Z>>
Type PRVL PRVL PRVL PRVL PRVL PRVL PRVL PRVL PRVL PRVL PRVL
VIS >6 >6 >6 >6 >6 >6 >6 >6 >6 >6 >6
CIG 40 40 40 40 40 40 40 40 40 40 40
Cover BKN BKN BKN BKN BKN BKN BKN BKN BKN BKN BKN
FltCat VFR VFR VFR VFR VFR VFR VFR VFR VFR VFR VFR
WX -- -- -- -- -- -- -- -- -- -- --
WDir 150 150 150 150 150 150 150 150 150 150 150
WSpd 6 6 6 6 6 6 6 6 6 6 6
WGst -- -- -- -- -- -- -- -- -- -- --

Raw TAF
KBTR 180530Z 1806/1906 01006KT P6SM VCSH SCT005 BKN020 OVC027
  TEMPO 1806/1808 BKN005
  FM180800 03006KT 5SM BR VCSH SCT010 BKN020
  FM181200 06004KT 4SM BR SCT010 BKN015
  FM181600 12005KT 6SM BR BKN020
  FM181800 15006KT P6SM BKN040


METAR Board
Radar Display
Forecast Discussion

FOR SITUATIONAL AWARENESS. NOT TO BE USED FOR FLIGHT PLANNING PURPOSES.